PWSweather.com
Personal Weather Stations
Station Observations
KCTHAMDEN
Dunbar Hill, Hamden, CT 06514

Dunbar HillHamden, CT 06514

Lat: 41.365437, Lon: -72.956532

Elevation: 200

Station Type: Davis Vantage Pro2+

www.hamdenweather.com

High Low Average
Temperature 45.4°F7.4°C 30.0°F-1.1°C 37.1°F2.8°C
Dew Point 27.5°F-2.5°C 19.4°F-7.0°C 22.4°F-5.3°C
Winds 11.4 mph 18.3 kmh Calm Calm 3.0 mph S4.8 kmh S
Wind Gusts 22.0 mph35.4 kmh -- 7.0 mph11.3 kmh
Humidity 81% 37% 57%
Pressure 29.58 in1001.7 mb 29.46 in997.6 mb -
Precipitation 0.00 in0.0 mm - -
Hour Temp Dew Point Humidity Winds Wind Gusts Pressure Precip Precip Rate Daily Precip Total
12:00 AM 33.1°F0.6°C 27.2°F-2.7°C 79% 2.1 mph SSW3.4 kmh SSW 2.0 mph3.2 kmh 29.48 in998.3 mb - 0.00 in0.0 mm 0.00 in0.0 mm
12:15 AM 33.1°F0.6°C 27.3°F-2.6°C 79% 3.0 mph S4.8 kmh S 12.0 mph19.3 kmh 29.48 in998.3 mb - 0.00 in0.0 mm 0.00 in0.0 mm
12:30 AM 33.0°F0.6°C 26.9°F-2.8°C 78% 5.6 mph S9.0 kmh S 7.0 mph11.3 kmh 29.47 in998.0 mb - 0.00 in0.0 mm 0.00 in0.0 mm
12:45 AM 32.9°F0.5°C 27.1°F-2.7°C 79% 2.9 mph SW4.7 kmh SW 4.0 mph6.4 kmh 29.47 in998.0 mb - 0.00 in0.0 mm 0.00 in0.0 mm
01:00 AM 32.8°F0.4°C 27.3°F-2.6°C 80% 3.2 mph SSW5.1 kmh SSW 6.0 mph9.7 kmh 29.47 in998.0 mb - 0.00 in0.0 mm 0.00 in0.0 mm
01:15 AM 32.7°F0.4°C 27.5°F-2.5°C 81% 4.7 mph S7.6 kmh S 4.0 mph6.4 kmh 29.47 in998.0 mb - 0.00 in0.0 mm 0.00 in0.0 mm
01:30 AM 32.5°F0.3°C 27.3°F-2.6°C 81% 3.0 mph S4.8 kmh S 5.0 mph8.0 kmh 29.47 in998.0 mb - 0.00 in0.0 mm 0.00 in0.0 mm
01:45 AM 32.6°F0.3°C 27.4°F-2.6°C 81% 6.7 mph SSW10.8 kmh SSW 14.0 mph22.5 kmh 29.47 in998.0 mb - 0.00 in0.0 mm 0.00 in0.0 mm
02:00 AM 32.8°F0.4°C 27.3°F-2.6°C 80% 2.4 mph SE3.9 kmh SE 4.0 mph6.4 kmh 29.47 in998.0 mb - 0.00 in0.0 mm 0.00 in0.0 mm
02:15 AM 32.9°F0.5°C 27.1°F-2.7°C 79% 5.9 mph SSW9.5 kmh SSW 9.0 mph14.5 kmh 29.47 in998.0 mb - 0.00 in0.0 mm 0.00 in0.0 mm
02:30 AM 32.7°F0.4°C 27.2°F-2.7°C 80% 6.3 mph SSW10.1 kmh SSW 17.0 mph27.4 kmh 29.47 in998.0 mb - 0.00 in0.0 mm 0.00 in0.0 mm
02:45 AM 32.6°F0.3°C 27.1°F-2.7°C 80% 2.5 mph SSE4.0 kmh SSE 8.0 mph12.9 kmh 29.47 in998.0 mb - 0.00 in0.0 mm 0.00 in0.0 mm
03:00 AM 32.2°F0.1°C 27.0°F-2.8°C 81% 2.7 mph ESE4.3 kmh ESE 5.0 mph8.0 kmh 29.47 in998.0 mb - 0.00 in0.0 mm 0.00 in0.0 mm
03:15 AM 32.0°F0.0°C 26.8°F-2.9°C 81% 8.0 mph NNE12.9 kmh NNE 14.0 mph22.5 kmh 29.46 in997.6 mb - 0.00 in0.0 mm 0.00 in0.0 mm
03:30 AM 31.9°F-0.1°C 26.5°F-3.1°C 80% 5.5 mph WSW8.9 kmh WSW 10.0 mph16.1 kmh 29.46 in997.6 mb - 0.00 in0.0 mm 0.00 in0.0 mm
03:45 AM 32.0°F0.0°C 26.2°F-3.2°C 79% 0.2 mph SW0.3 kmh SW 4.0 mph6.4 kmh 29.47 in998.0 mb - 0.00 in0.0 mm 0.00 in0.0 mm
04:00 AM 31.9°F-0.1°C 25.9°F-3.4°C 78% 4.7 mph WSW7.6 kmh WSW 7.0 mph11.3 kmh 29.47 in998.0 mb - 0.00 in0.0 mm 0.00 in0.0 mm
04:15 AM 32.0°F0.0°C 25.3°F-3.7°C 76% 4.3 mph SW6.9 kmh SW 19.0 mph30.6 kmh 29.47 in998.0 mb - 0.00 in0.0 mm 0.00 in0.0 mm
04:30 AM 32.3°F0.2°C 24.6°F-4.1°C 73% 6.2 mph WSW10.0 kmh WSW 20.0 mph32.2 kmh 29.47 in998.0 mb - 0.00 in0.0 mm 0.00 in0.0 mm
04:45 AM 32.4°F0.2°C 24.3°F-4.3°C 72% 4.9 mph SW7.9 kmh SW 14.0 mph22.5 kmh 29.48 in998.3 mb - 0.00 in0.0 mm 0.00 in0.0 mm
05:00 AM 32.3°F0.2°C 23.9°F-4.5°C 71% 3.0 mph SE4.8 kmh SE 6.0 mph9.7 kmh 29.49 in998.6 mb - 0.00 in0.0 mm 0.00 in0.0 mm
05:15 AM 32.1°F0.1°C 23.8°F-4.6°C 71% 4.9 mph WSW7.9 kmh WSW 11.0 mph17.7 kmh 29.49 in998.6 mb - 0.00 in0.0 mm 0.00 in0.0 mm
05:30 AM 32.0°F0.0°C 23.6°F-4.7°C 71% 4.0 mph E6.4 kmh E 6.0 mph9.7 kmh 29.50 in999.0 mb - 0.00 in0.0 mm 0.00 in0.0 mm
05:45 AM 31.8°F-0.1°C 23.4°F-4.8°C 71% 7.1 mph S11.4 kmh S 14.0 mph22.5 kmh 29.50 in999.0 mb - 0.00 in0.0 mm 0.00 in0.0 mm
06:00 AM 31.6°F-0.2°C 22.9°F-5.1°C 70% 6.5 mph S10.5 kmh S 14.0 mph22.5 kmh 29.51 in999.3 mb - 0.00 in0.0 mm 0.00 in0.0 mm
06:15 AM 31.4°F-0.3°C 22.7°F-5.2°C 70% 5.1 mph SW8.2 kmh SW 17.0 mph27.4 kmh 29.51 in999.3 mb - 0.00 in0.0 mm 0.00 in0.0 mm
06:30 AM 31.2°F-0.4°C 22.5°F-5.3°C 70% 3.2 mph SW5.1 kmh SW 7.0 mph11.3 kmh 29.52 in999.7 mb - 0.00 in0.0 mm 0.00 in0.0 mm
06:45 AM 31.0°F-0.6°C 22.4°F-5.3°C 70% 2.4 mph SW3.9 kmh SW 5.0 mph8.0 kmh 29.52 in999.7 mb - 0.00 in0.0 mm 0.00 in0.0 mm
07:00 AM 30.8°F-0.7°C 21.9°F-5.6°C 69% 6.8 mph S10.9 kmh S 14.0 mph22.5 kmh 29.53 in1000.0 mb - 0.00 in0.0 mm 0.00 in0.0 mm
07:15 AM 30.9°F-0.6°C 21.9°F-5.6°C 69% 2.0 mph SSW3.2 kmh SSW 8.0 mph12.9 kmh 29.53 in1000.0 mb - 0.00 in0.0 mm 0.00 in0.0 mm
07:30 AM 31.1°F-0.5°C 21.8°F-5.7°C 68% 4.7 mph ESE7.6 kmh ESE 7.0 mph11.3 kmh 29.53 in1000.0 mb - 0.00 in0.0 mm 0.00 in0.0 mm
07:45 AM 31.2°F-0.4°C 21.5°F-5.8°C 67% 4.6 mph S7.4 kmh S 4.0 mph6.4 kmh 29.53 in1000.0 mb - 0.00 in0.0 mm 0.00 in0.0 mm
08:00 AM 31.4°F-0.3°C 21.7°F-5.7°C 67% 4.0 mph SW6.4 kmh SW 12.0 mph19.3 kmh 29.53 in1000.0 mb - 0.00 in0.0 mm 0.00 in0.0 mm
08:15 AM 31.4°F-0.3°C 21.4°F-5.9°C 66% 4.1 mph SW6.6 kmh SW 16.0 mph25.7 kmh 29.53 in1000.0 mb - 0.00 in0.0 mm 0.00 in0.0 mm
08:30 AM 31.7°F-0.2°C 21.6°F-5.8°C 66% 11.4 mph SSW18.3 kmh SSW 19.0 mph30.6 kmh 29.53 in1000.0 mb - 0.00 in0.0 mm 0.00 in0.0 mm
08:45 AM 32.2°F0.1°C 22.1°F-5.5°C 66% 2.9 mph S4.7 kmh S 14.0 mph22.5 kmh 29.53 in1000.0 mb - 0.00 in0.0 mm 0.00 in0.0 mm
09:00 AM 33.2°F0.7°C 22.4°F-5.3°C 64% 7.5 mph SSW12.1 kmh SSW 22.0 mph35.4 kmh 29.53 in1000.0 mb - 0.00 in0.0 mm 0.00 in0.0 mm
09:15 AM 34.1°F1.2°C 22.4°F-5.3°C 62% 7.9 mph S12.7 kmh S 10.0 mph16.1 kmh 29.53 in1000.0 mb - 0.00 in0.0 mm 0.00 in0.0 mm
09:30 AM 34.6°F1.4°C 22.1°F-5.5°C 60% 8.3 mph SW13.4 kmh SW 15.0 mph24.1 kmh 29.53 in1000.0 mb - 0.00 in0.0 mm 0.00 in0.0 mm
09:45 AM 35.0°F1.7°C 22.9°F-5.1°C 61% 2.7 mph WSW4.3 kmh WSW 6.0 mph9.7 kmh 29.54 in1000.3 mb - 0.00 in0.0 mm 0.00 in0.0 mm
10:00 AM 36.2°F2.3°C 22.4°F-5.3°C 57% 5.9 mph NE9.5 kmh NE 8.0 mph12.9 kmh 29.54 in1000.3 mb - 0.00 in0.0 mm 0.00 in0.0 mm
10:15 AM 36.4°F2.4°C 23.0°F-5.0°C 58% 9.3 mph W15.0 kmh W 16.0 mph25.7 kmh 29.53 in1000.0 mb - 0.00 in0.0 mm 0.00 in0.0 mm
10:30 AM 37.7°F3.2°C 23.8°F-4.6°C 57% 5.1 mph E8.2 kmh E 7.0 mph11.3 kmh 29.54 in1000.3 mb - 0.00 in0.0 mm 0.00 in0.0 mm
10:45 AM 37.5°F3.1°C 22.8°F-5.1°C 55% 0.8 mph WSW1.3 kmh WSW 7.0 mph11.3 kmh 29.54 in1000.3 mb - 0.00 in0.0 mm 0.00 in0.0 mm
11:00 AM 37.6°F3.1°C 23.3°F-4.8°C 56% 3.8 mph S6.1 kmh S 11.0 mph17.7 kmh 29.53 in1000.0 mb - 0.00 in0.0 mm 0.00 in0.0 mm
11:15 AM 38.7°F3.7°C 23.4°F-4.8°C 54% 1.5 mph NNE2.4 kmh NNE -- 29.53 in1000.0 mb - 0.00 in0.0 mm 0.00 in0.0 mm
11:30 AM 39.4°F4.1°C 24.5°F-4.2°C 55% 2.3 mph S3.7 kmh S 4.0 mph6.4 kmh 29.53 in1000.0 mb - 0.00 in0.0 mm 0.00 in0.0 mm
11:45 AM 40.0°F4.4°C 23.8°F-4.6°C 52% 4.6 mph WNW7.4 kmh WNW 10.0 mph16.1 kmh 29.53 in1000.0 mb - 0.00 in0.0 mm 0.00 in0.0 mm
12:00 PM 40.0°F4.4°C 22.8°F-5.1°C 50% 3.5 mph S5.6 kmh S 10.0 mph16.1 kmh 29.52 in999.7 mb - 0.00 in0.0 mm 0.00 in0.0 mm
12:15 PM 40.4°F4.7°C 24.1°F-4.4°C 52% 6.5 mph NNE10.5 kmh NNE 10.0 mph16.1 kmh 29.52 in999.7 mb - 0.00 in0.0 mm 0.00 in0.0 mm
12:30 PM 41.6°F5.3°C 23.8°F-4.6°C 49% 3.3 mph WNW5.3 kmh WNW 4.0 mph6.4 kmh 29.52 in999.7 mb - 0.00 in0.0 mm 0.00 in0.0 mm
12:45 PM 42.0°F5.6°C 24.2°F-4.3°C 49% 5.6 mph WSW9.0 kmh WSW 10.0 mph16.1 kmh 29.52 in999.7 mb - 0.00 in0.0 mm 0.00 in0.0 mm
01:00 PM 42.4°F5.8°C 23.1°F-4.9°C 46% 4.2 mph N6.8 kmh N 8.0 mph12.9 kmh 29.52 in999.7 mb - 0.00 in0.0 mm 0.00 in0.0 mm
01:15 PM 42.3°F5.7°C 22.4°F-5.3°C 45% 4.9 mph WSW7.9 kmh WSW 6.0 mph9.7 kmh 29.51 in999.3 mb - 0.00 in0.0 mm 0.00 in0.0 mm
01:30 PM 42.6°F5.9°C 23.8°F-4.6°C 47% 4.5 mph S7.2 kmh S 15.0 mph24.1 kmh 29.50 in999.0 mb - 0.00 in0.0 mm 0.00 in0.0 mm
01:45 PM 42.2°F5.7°C 21.8°F-5.7°C 44% 1.7 mph SW2.7 kmh SW 11.0 mph17.7 kmh 29.50 in999.0 mb - 0.00 in0.0 mm 0.00 in0.0 mm
02:00 PM 42.6°F5.9°C 21.1°F-6.1°C 42% 1.8 mph E2.9 kmh E 5.0 mph8.0 kmh 29.49 in998.6 mb - 0.00 in0.0 mm 0.00 in0.0 mm
02:15 PM 43.0°F6.1°C 21.4°F-5.9°C 42% 4.2 mph NNE6.8 kmh NNE 5.0 mph8.0 kmh 29.48 in998.3 mb - 0.00 in0.0 mm 0.00 in0.0 mm
02:30 PM 44.0°F6.7°C 22.9°F-5.1°C 43% 1.8 mph NE2.9 kmh NE 7.0 mph11.3 kmh 29.48 in998.3 mb - 0.00 in0.0 mm 0.00 in0.0 mm
02:45 PM 44.6°F7.0°C 22.3°F-5.4°C 41% 2.5 mph S4.0 kmh S 10.0 mph16.1 kmh 29.48 in998.3 mb - 0.00 in0.0 mm 0.00 in0.0 mm
03:00 PM 44.3°F6.8°C 21.5°F-5.8°C 40% 4.2 mph SSW6.8 kmh SSW 5.0 mph8.0 kmh 29.48 in998.3 mb - 0.00 in0.0 mm 0.00 in0.0 mm
03:15 PM 44.6°F7.0°C 21.1°F-6.1°C 39% 7.7 mph SW12.4 kmh SW 16.0 mph25.7 kmh 29.48 in998.3 mb - 0.00 in0.0 mm 0.00 in0.0 mm
03:30 PM 45.3°F7.4°C 20.5°F-6.4°C 37% 6.6 mph SW10.6 kmh SW 13.0 mph20.9 kmh 29.48 in998.3 mb - 0.00 in0.0 mm 0.00 in0.0 mm
03:45 PM 45.4°F7.4°C 21.9°F-5.6°C 39% 1.2 mph S1.9 kmh S 8.0 mph12.9 kmh 29.48 in998.3 mb - 0.00 in0.0 mm 0.00 in0.0 mm
04:00 PM 45.4°F7.4°C 21.2°F-6.0°C 38% 1.7 mph SW2.7 kmh SW 3.0 mph4.8 kmh 29.47 in998.0 mb - 0.00 in0.0 mm 0.00 in0.0 mm
04:15 PM 44.8°F7.1°C 20.1°F-6.6°C 37% 0.2 mph WNW0.3 kmh WNW 2.0 mph3.2 kmh 29.47 in998.0 mb - 0.00 in0.0 mm 0.00 in0.0 mm
04:30 PM 44.3°F6.8°C 19.6°F-6.9°C 37% 3.4 mph SE5.5 kmh SE 4.0 mph6.4 kmh 29.47 in998.0 mb - 0.00 in0.0 mm 0.00 in0.0 mm
04:45 PM 44.2°F6.8°C 20.8°F-6.2°C 39% 4.6 mph WSW7.4 kmh WSW 12.0 mph19.3 kmh 29.48 in998.3 mb - 0.00 in0.0 mm 0.00 in0.0 mm
05:00 PM 44.3°F6.8°C 20.9°F-6.2°C 39% 4.9 mph WSW7.9 kmh WSW 8.0 mph12.9 kmh 29.48 in998.3 mb - 0.00 in0.0 mm 0.00 in0.0 mm
05:15 PM 44.1°F6.7°C 21.3°F-5.9°C 40% 0.6 mph SSW1.0 kmh SSW 4.0 mph6.4 kmh 29.48 in998.3 mb - 0.00 in0.0 mm 0.00 in0.0 mm
05:30 PM 43.9°F6.6°C 21.1°F-6.1°C 40% 2.1 mph SW3.4 kmh SW 4.0 mph6.4 kmh 29.49 in998.6 mb - 0.00 in0.0 mm 0.00 in0.0 mm
05:45 PM 43.6°F6.4°C 22.0°F-5.6°C 42% 3.7 mph S6.0 kmh S 13.0 mph20.9 kmh 29.49 in998.6 mb - 0.00 in0.0 mm 0.00 in0.0 mm
06:00 PM 43.4°F6.3°C 20.1°F-6.6°C 39% 0.7 mph ENE1.1 kmh ENE 2.0 mph3.2 kmh 29.49 in998.6 mb - 0.00 in0.0 mm 0.00 in0.0 mm
06:15 PM 43.3°F6.3°C 20.0°F-6.7°C 39% Calm Calm 1.0 mph1.6 kmh 29.49 in998.6 mb - 0.00 in0.0 mm 0.00 in0.0 mm
06:30 PM 43.0°F6.1°C 19.7°F-6.8°C 39% 0.8 mph SW1.3 kmh SW 7.0 mph11.3 kmh 29.50 in999.0 mb - 0.00 in0.0 mm 0.00 in0.0 mm
06:45 PM 42.6°F5.9°C 19.4°F-7.0°C 39% Calm Calm -- 29.50 in999.0 mb - 0.00 in0.0 mm 0.00 in0.0 mm
07:00 PM 42.3°F5.7°C 19.7°F-6.8°C 40% Calm Calm -- 29.51 in999.3 mb - 0.00 in0.0 mm 0.00 in0.0 mm
07:15 PM 42.2°F5.7°C 19.6°F-6.9°C 40% Calm Calm -- 29.52 in999.7 mb - 0.00 in0.0 mm 0.00 in0.0 mm
07:30 PM 41.8°F5.4°C 19.8°F-6.8°C 41% Calm Calm -- 29.52 in999.7 mb - 0.00 in0.0 mm 0.00 in0.0 mm
07:45 PM 41.3°F5.2°C 19.9°F-6.7°C 42% Calm Calm -- 29.53 in1000.0 mb - 0.00 in0.0 mm 0.00 in0.0 mm
08:00 PM 40.8°F4.9°C 20.5°F-6.4°C 44% Calm Calm -- 29.54 in1000.3 mb - 0.00 in0.0 mm 0.00 in0.0 mm
08:15 PM 40.0°F4.4°C 20.3°F-6.5°C 45% Calm Calm -- 29.54 in1000.3 mb - 0.00 in0.0 mm 0.00 in0.0 mm
08:30 PM 39.2°F4.0°C 20.6°F-6.3°C 47% Calm Calm -- 29.55 in1000.7 mb - 0.00 in0.0 mm 0.00 in0.0 mm
08:45 PM 38.4°F3.6°C 20.4°F-6.4°C 48% 0.1 mph ESE0.2 kmh ESE -- 29.55 in1000.7 mb - 0.00 in0.0 mm 0.00 in0.0 mm
09:00 PM 38.2°F3.4°C 20.7°F-6.3°C 49% Calm Calm -- 29.56 in1001.0 mb - 0.00 in0.0 mm 0.00 in0.0 mm
09:15 PM 38.0°F3.3°C 20.5°F-6.4°C 49% Calm Calm -- 29.56 in1001.0 mb - 0.00 in0.0 mm 0.00 in0.0 mm
09:30 PM 37.6°F3.1°C 20.6°F-6.3°C 50% Calm Calm 1.0 mph1.6 kmh 29.56 in1001.0 mb - 0.00 in0.0 mm 0.00 in0.0 mm
09:45 PM 37.0°F2.8°C 20.5°F-6.4°C 51% Calm Calm -- 29.57 in1001.4 mb - 0.00 in0.0 mm 0.00 in0.0 mm
10:00 PM 36.2°F2.3°C 19.8°F-6.8°C 51% Calm Calm 1.0 mph1.6 kmh 29.57 in1001.4 mb - 0.00 in0.0 mm 0.00 in0.0 mm
10:15 PM 35.8°F2.1°C 19.9°F-6.7°C 52% Calm Calm -- 29.57 in1001.4 mb - 0.00 in0.0 mm 0.00 in0.0 mm
10:30 PM 36.1°F2.3°C 19.7°F-6.8°C 51% Calm Calm 1.0 mph1.6 kmh 29.57 in1001.4 mb - 0.00 in0.0 mm 0.00 in0.0 mm
10:45 PM 36.0°F2.2°C 19.6°F-6.9°C 51% Calm Calm -- 29.57 in1001.4 mb - 0.00 in0.0 mm 0.00 in0.0 mm
11:00 PM 35.4°F1.9°C 20.4°F-6.4°C 54% Calm Calm -- 29.57 in1001.4 mb - 0.00 in0.0 mm 0.00 in0.0 mm
11:15 PM 34.5°F1.4°C 20.4°F-6.4°C 56% Calm Calm -- 29.57 in1001.4 mb - 0.00 in0.0 mm 0.00 in0.0 mm
11:30 PM 33.5°F0.8°C 20.3°F-6.5°C 58% Calm Calm -- 29.58 in1001.7 mb - 0.00 in0.0 mm 0.00 in0.0 mm
11:45 PM 32.6°F0.3°C 20.6°F-6.3°C 61% Calm Calm -- 29.58 in1001.7 mb - 0.00 in0.0 mm 0.00 in0.0 mm